Terminal Aerodrome Forecast
Issued by NWS

Home | Current Version | Previous Version | Text Only | Print | Product List | Glossary On
Versions: 1 2 3 4 5 6 7 8 9 10 11 12 13 14 15 16 17 18
000
FTUS43 KGRB 011100
TAFATW
TAF
KATW 011136Z 0112/0212 09003KT 3SM -DZ BR OVC003
      TEMPO 0112/0116 1 1/2SM BR OVC009
     FM011600 13007KT P6SM BKN013
     FM012000 14008KT P6SM BKN022 BKN080
     FM020100 15006KT 5SM BR SCT009 OVC015
      TEMPO 0201/0205 2SM -RA BR BKN009
     FM020500 13004KT 2SM -RA BR OVC008=

USA.gov is the U.S. government's official web portal to all federal, state and local government web resources and services.